createdAt,value
2019-04-14T00:02:19.227Z,3.50
2019-04-14T00:04:49.286Z,3.50
2019-04-14T00:07:18.753Z,3.50
2019-04-14T00:09:47.534Z,3.50
2019-04-14T00:12:16.534Z,3.50
2019-04-14T00:14:45.023Z,3.50
2019-04-14T00:17:13.470Z,3.50
2019-04-14T00:19:41.902Z,3.50
2019-04-14T00:22:11.581Z,3.50
2019-04-14T00:24:40.284Z,3.50
2019-04-14T00:27:10.553Z,3.50
2019-04-14T00:29:39.281Z,3.40
2019-04-14T00:32:09.442Z,3.40
2019-04-14T00:34:39.898Z,3.40
2019-04-14T00:37:16.354Z,3.50
2019-04-14T00:39:46.943Z,3.50
2019-04-14T00:42:34.787Z,3.60
2019-04-14T00:45:06.917Z,3.60
2019-04-14T00:47:49.803Z,3.60
2019-04-14T00:50:07.987Z,3.70
2019-04-14T00:52:37.270Z,3.80
2019-04-14T00:55:07.618Z,3.80
2019-04-14T00:57:37.572Z,3.80
2019-04-14T01:00:08.217Z,3.80
2019-04-14T01:02:36.776Z,3.80
2019-04-14T01:05:07.252Z,3.70
2019-04-14T01:07:36.904Z,3.70
2019-04-14T01:10:06.078Z,3.70
2019-04-14T01:12:34.659Z,3.70
2019-04-14T01:15:03.175Z,3.80
2019-04-14T01:17:32.984Z,3.80
2019-04-14T01:20:01.753Z,3.90
2019-04-14T01:22:31.381Z,4.00
2019-04-14T01:25:00.113Z,4.00
2019-04-14T01:27:29.825Z,4.10
2019-04-14T01:29:58.593Z,4.10
2019-04-14T01:32:28.255Z,4.20
2019-04-14T01:34:57.309Z,4.20
2019-04-14T01:37:26.813Z,4.30
2019-04-14T01:39:56.638Z,4.30
2019-04-14T01:42:25.171Z,4.30
2019-04-14T01:44:54.618Z,4.30
2019-04-14T01:47:23.181Z,4.30
2019-04-14T01:49:51.594Z,4.30
2019-04-14T01:52:25.301Z,4.40
2019-04-14T01:54:58.374Z,4.40
2019-04-14T01:57:45.955Z,4.40
2019-04-14T02:00:35.871Z,4.40
2019-04-14T02:03:04.640Z,4.30
2019-04-14T02:05:34.212Z,4.30
2019-04-14T02:08:02.854Z,4.20
2019-04-14T02:10:32.583Z,4.20
2019-04-14T02:13:01.237Z,4.10
2019-04-14T02:15:30.823Z,4.10
2019-04-14T02:17:59.451Z,4.20
2019-04-14T02:20:28.060Z,4.30
2019-04-14T02:22:57.369Z,4.40
2019-04-14T02:25:25.889Z,4.40
2019-04-14T02:27:54.310Z,4.40
2019-04-14T02:30:30.665Z,4.50
2019-04-14T02:33:26.335Z,4.50
2019-04-14T02:35:55.226Z,4.40
2019-04-14T02:40:55.551Z,4.30
2019-04-14T02:43:27.636Z,4.20
2019-04-14T02:45:50.481Z,4.10
2019-04-14T02:50:49.623Z,4.00
2019-04-14T02:56:01.700Z,3.90
2019-04-14T02:58:26.750Z,3.80
2019-04-14T03:00:58.506Z,3.70
2019-04-14T03:03:22.917Z,3.70
2019-04-14T03:05:53.353Z,3.60
2019-04-14T03:08:25.565Z,3.60
2019-04-14T03:13:21.161Z,3.50
2019-04-14T03:18:32.168Z,3.40
2019-04-14T03:21:03.503Z,3.40
2019-04-14T03:23:40.311Z,3.40
2019-04-14T03:26:17.966Z,3.30
2019-04-14T03:28:51.282Z,3.30
2019-04-14T03:34:17.978Z,3.30
2019-04-14T03:37:04.789Z,3.40
2019-04-14T03:38:58.771Z,3.50
2019-04-14T03:41:37.156Z,3.60
2019-04-14T03:43:48.220Z,3.50
2019-04-14T03:46:45.312Z,3.50
2019-04-14T03:48:58.509Z,3.50
2019-04-14T03:51:39.912Z,3.60
2019-04-14T03:53:55.955Z,3.60
2019-04-14T03:56:07.155Z,3.70
2019-04-14T03:58:33.640Z,3.80
2019-04-14T04:01:02.110Z,3.80
2019-04-14T04:03:30.605Z,3.90
2019-04-14T04:05:59.036Z,4.00
2019-04-14T04:08:27.457Z,4.00
2019-04-14T04:11:00.066Z,4.00
2019-04-14T04:13:28.529Z,4.10
2019-04-14T04:15:58.645Z,4.00
2019-04-14T04:18:28.806Z,4.10
2019-04-14T04:21:09.474Z,4.00
2019-04-14T04:23:42.519Z,4.00
2019-04-14T04:26:21.849Z,3.90
2019-04-14T04:29:01.153Z,3.90
2019-04-14T04:31:48.258Z,4.00
2019-04-14T04:34:25.081Z,4.00
2019-04-14T04:37:10.439Z,4.00
2019-04-14T04:39:41.281Z,4.00
2019-04-14T04:42:11.275Z,3.90
2019-04-14T04:44:39.984Z,3.80
2019-04-14T04:47:09.801Z,3.80
2019-04-14T04:49:38.450Z,3.70
2019-04-14T04:52:09.883Z,3.60
2019-04-14T04:54:37.122Z,3.70
2019-04-14T04:57:06.667Z,3.80
2019-04-14T04:59:36.598Z,3.80
2019-04-14T05:02:05.427Z,3.90
2019-04-14T05:04:35.010Z,3.90
2019-04-14T05:07:03.792Z,3.80
2019-04-14T05:09:34.263Z,3.70
2019-04-14T05:12:22.044Z,3.60
2019-04-14T05:14:54.580Z,3.50
2019-04-14T05:17:25.536Z,3.50
2019-04-14T05:19:54.242Z,3.50
2019-04-14T05:22:22.690Z,3.60
2019-04-14T05:24:51.176Z,3.70
2019-04-14T05:27:21.012Z,3.70
2019-04-14T05:29:49.567Z,3.80
2019-04-14T05:32:17.994Z,3.90
2019-04-14T05:34:46.434Z,4.10
2019-04-14T05:37:15.991Z,4.20
2019-04-14T05:39:44.788Z,4.30
2019-04-14T05:42:19.385Z,4.40
2019-04-14T05:44:44.685Z,4.40
2019-04-14T05:47:13.472Z,4.50
2019-04-14T05:49:46.915Z,4.60
2019-04-14T05:52:12.082Z,4.70
2019-04-14T05:54:40.587Z,4.70
2019-04-14T05:57:09.003Z,4.80
2019-04-14T05:59:37.550Z,4.80
2019-04-14T06:02:07.270Z,4.80
2019-04-14T06:04:35.956Z,4.80
2019-04-14T06:07:04.772Z,4.70
2019-04-14T06:09:33.212Z,4.60
2019-04-14T06:12:01.644Z,4.60
2019-04-14T06:14:30.064Z,4.60
2019-04-14T06:16:58.506Z,4.60
2019-04-14T06:19:36.487Z,4.50
2019-04-14T06:21:57.089Z,4.50
2019-04-14T06:24:25.516Z,4.50
2019-04-14T06:26:54.020Z,4.40
2019-04-14T06:29:22.456Z,4.50
2019-04-14T06:31:55.240Z,4.50
2019-04-14T06:34:25.288Z,4.50
2019-04-14T06:37:07.350Z,4.50
2019-04-14T06:39:37.448Z,4.60
2019-04-14T06:42:05.880Z,4.60
2019-04-14T06:44:34.323Z,4.80
2019-04-14T06:47:02.752Z,4.90
2019-04-14T06:49:31.249Z,5.10
2019-04-14T06:51:59.680Z,5.40
2019-04-14T06:54:28.152Z,5.50
2019-04-14T06:57:04.653Z,5.60
2019-04-14T06:59:33.093Z,5.70
2019-04-14T07:02:01.875Z,6.00
2019-04-14T07:04:30.621Z,6.20
2019-04-14T07:06:59.161Z,6.30
2019-04-14T07:09:27.569Z,6.30
2019-04-14T07:11:56.041Z,6.30
2019-04-14T07:14:24.569Z,6.40
2019-04-14T07:16:52.989Z,6.40
2019-04-14T07:19:21.498Z,6.40
2019-04-14T07:21:49.911Z,6.40
2019-04-14T07:24:18.349Z,6.40
2019-04-14T07:26:46.769Z,6.30
2019-04-14T07:29:15.202Z,6.30
2019-04-14T07:31:47.981Z,6.20
2019-04-14T07:34:18.050Z,6.20
2019-04-14T07:36:48.117Z,6.20
2019-04-14T07:39:36.130Z,6.20
2019-04-14T07:42:06.178Z,6.20
2019-04-14T07:44:36.266Z,6.20
2019-04-14T07:47:18.414Z,6.20
2019-04-14T07:50:13.960Z,6.30
2019-04-14T07:52:36.466Z,6.30
2019-04-14T07:55:07.386Z,6.30
2019-04-14T07:57:53.694Z,6.40
2019-04-14T08:00:38.771Z,6.40
2019-04-14T08:03:08.837Z,6.50
2019-04-14T08:05:41.574Z,6.50
2019-04-14T08:08:10.003Z,6.60
2019-04-14T08:10:38.434Z,6.60
2019-04-14T08:13:06.866Z,6.70
2019-04-14T08:15:35.306Z,6.70
2019-04-14T08:18:03.860Z,6.80
2019-04-14T08:20:32.387Z,6.80
2019-04-14T08:23:00.809Z,6.90
2019-04-14T08:25:29.210Z,7.00
2019-04-14T08:27:57.799Z,7.00
2019-04-14T08:30:26.318Z,7.10
2019-04-14T08:32:54.750Z,7.20
2019-04-14T08:35:23.270Z,7.20
2019-04-14T08:37:51.707Z,7.30
2019-04-14T08:40:20.348Z,7.30
2019-04-14T08:42:56.375Z,7.40
2019-04-14T08:45:44.496Z,7.50
2019-04-14T08:48:26.635Z,7.50
2019-04-14T08:50:59.360Z,7.60
2019-04-14T08:53:41.354Z,7.70
2019-04-14T08:56:27.751Z,7.80
2019-04-14T08:59:06.876Z,7.90
2019-04-14T09:01:51.679Z,8.00
2019-04-14T09:04:38.464Z,8.00
2019-04-14T09:07:11.231Z,8.10
2019-04-14T09:09:41.307Z,8.10
2019-04-14T09:12:15.810Z,8.20
2019-04-14T09:14:41.519Z,8.30
2019-04-14T09:17:09.939Z,8.40
2019-04-14T09:19:38.368Z,8.60
2019-04-14T09:22:06.823Z,8.60
2019-04-14T09:24:35.397Z,8.70
2019-04-14T09:27:03.799Z,8.80
2019-04-14T09:29:32.236Z,8.90
2019-04-14T09:32:00.840Z,9.00
2019-04-14T09:34:29.283Z,9.00
2019-04-14T09:36:57.699Z,9.10
2019-04-14T09:39:26.122Z,9.20
2019-04-14T09:41:54.576Z,9.30
2019-04-14T09:44:22.999Z,9.50
2019-04-14T09:46:51.426Z,9.70
2019-04-14T09:49:19.844Z,9.90
2019-04-14T09:51:48.270Z,10.10
2019-04-14T09:54:16.695Z,10.40
2019-04-14T09:56:45.119Z,10.60
2019-04-14T09:59:13.534Z,10.80
2019-04-14T10:01:42.039Z,10.80
2019-04-14T10:04:10.475Z,10.90
2019-04-14T10:06:40.902Z,11.00
2019-04-14T10:09:09.172Z,11.10
2019-04-14T10:11:47.889Z,11.20
2019-04-14T10:14:07.847Z,11.20
2019-04-14T10:16:36.270Z,11.20
2019-04-14T10:19:04.863Z,11.20
2019-04-14T10:21:33.287Z,11.20
2019-04-14T10:24:01.775Z,11.30
2019-04-14T10:26:30.208Z,11.30
2019-04-14T10:28:58.651Z,11.30
2019-04-14T10:31:27.076Z,11.30
2019-04-14T10:33:55.529Z,11.20
2019-04-14T10:36:43.290Z,11.20
2019-04-14T10:39:11.718Z,11.20
2019-04-14T10:41:40.157Z,11.30
2019-04-14T10:44:08.588Z,11.40
2019-04-14T10:46:37.070Z,11.50
2019-04-14T10:49:05.509Z,11.80
2019-04-14T10:51:34.246Z,12.00
2019-04-14T10:54:02.846Z,12.20
2019-04-14T10:56:31.270Z,12.30
2019-04-14T10:58:59.709Z,12.40
2019-04-14T11:01:28.137Z,12.40
2019-04-14T11:03:56.592Z,12.40
2019-04-14T11:06:29.357Z,12.50
2019-04-14T11:08:57.814Z,12.60
2019-04-14T11:11:26.256Z,12.80
2019-04-14T11:13:54.742Z,12.80
2019-04-14T11:16:23.242Z,12.90
2019-04-14T11:18:51.690Z,12.90
2019-04-14T11:21:20.118Z,12.90
2019-04-14T11:23:48.546Z,13.00
2019-04-14T11:26:16.976Z,13.10
2019-04-14T11:28:45.575Z,13.10
2019-04-14T11:31:15.645Z,13.00
2019-04-14T11:34:00.472Z,13.10
2019-04-14T11:36:33.092Z,13.10
2019-04-14T11:39:03.154Z,13.30
2019-04-14T11:41:31.598Z,13.40
2019-04-14T11:44:00.193Z,13.70
2019-04-14T11:46:28.630Z,13.90
2019-04-14T11:48:57.052Z,14.00
2019-04-14T11:51:25.558Z,14.20
2019-04-14T11:53:53.990Z,14.30
2019-04-14T11:56:22.418Z,14.40
2019-04-14T11:58:50.867Z,14.40
2019-04-14T12:01:37.091Z,14.50
2019-04-14T12:04:16.206Z,14.70
2019-04-14T12:07:01.248Z,14.80
2019-04-14T12:09:31.314Z,14.90
2019-04-14T12:11:59.747Z,15.00
2019-04-14T12:14:28.448Z,15.10
2019-04-14T12:16:56.879Z,15.10
2019-04-14T12:19:25.303Z,15.10
2019-04-14T12:21:53.739Z,15.10
2019-04-14T12:24:22.219Z,15.10
2019-04-14T12:26:50.719Z,15.20
2019-04-14T12:29:19.230Z,15.40
2019-04-14T12:31:50.985Z,15.50
2019-04-14T12:34:19.679Z,15.50
2019-04-14T12:36:48.191Z,15.50
2019-04-14T12:39:25.456Z,15.60
2019-04-14T12:41:58.740Z,15.70
2019-04-14T12:44:37.506Z,15.70
2019-04-14T12:47:25.635Z,15.80
2019-04-14T12:49:58.489Z,15.90
2019-04-14T12:52:28.612Z,15.90
2019-04-14T12:54:57.400Z,16.00
2019-04-14T12:57:36.201Z,16.10
2019-04-14T13:00:25.745Z,16.10
2019-04-14T13:02:55.161Z,16.10
2019-04-14T13:05:23.674Z,16.20
2019-04-14T13:07:52.130Z,16.40
2019-04-14T13:10:20.568Z,16.50
2019-04-14T13:12:49.004Z,16.60
2019-04-14T13:15:17.417Z,16.80
2019-04-14T13:17:45.865Z,16.90
2019-04-14T13:20:14.477Z,17.10
2019-04-14T13:22:42.893Z,17.20
2019-04-14T13:25:11.562Z,17.40
2019-04-14T13:27:40.010Z,17.40
2019-04-14T13:30:11.045Z,17.50
2019-04-14T13:32:39.465Z,17.70
2019-04-14T13:35:08.097Z,17.90
2019-04-14T13:37:36.541Z,18.10
2019-04-14T13:40:08.609Z,18.50
2019-04-14T13:42:37.078Z,20.40
2019-04-14T13:45:07.317Z,22.20
2019-04-14T13:47:35.734Z,23.60
2019-04-14T13:50:06.229Z,25.20
2019-04-14T13:52:45.988Z,26.40
2019-04-14T13:55:06.460Z,27.30
2019-04-14T13:57:34.893Z,28.20
2019-04-14T14:00:05.366Z,29.20
2019-04-14T14:02:33.794Z,30.00
2019-04-14T14:05:02.222Z,31.00
2019-04-14T14:07:30.729Z,31.60
2019-04-14T14:09:59.163Z,31.80
2019-04-14T14:12:29.235Z,30.20
2019-04-14T14:15:05.246Z,28.80
2019-04-14T14:17:47.510Z,30.10
2019-04-14T14:20:17.661Z,31.50
2019-04-14T14:22:59.165Z,31.00
2019-04-14T14:25:24.867Z,30.00
2019-04-14T14:27:53.294Z,31.00
2019-04-14T14:30:21.741Z,32.50
2019-04-14T14:32:50.164Z,33.70
2019-04-14T14:35:18.603Z,34.70
2019-04-14T14:37:47.014Z,35.40
2019-04-14T14:40:16.191Z,36.00
2019-04-14T14:42:44.627Z,36.60
2019-04-14T14:45:31.555Z,35.40
2019-04-14T14:48:07.375Z,32.30
2019-04-14T14:50:40.394Z,29.70
2019-04-14T14:53:12.371Z,28.30
2019-04-14T14:55:38.982Z,28.70
2019-04-14T14:58:07.407Z,29.30
2019-04-14T15:00:35.879Z,29.50
2019-04-14T15:03:04.567Z,30.90
2019-04-14T15:05:33.066Z,32.30
2019-04-14T15:08:01.488Z,33.10
2019-04-14T15:10:29.931Z,33.60
2019-04-14T15:12:58.353Z,33.60
2019-04-14T15:15:26.795Z,31.20
2019-04-14T15:17:55.215Z,28.80
2019-04-14T15:20:23.733Z,26.80
2019-04-14T15:22:52.409Z,26.80
2019-04-14T15:25:21.087Z,27.20
2019-04-14T15:27:49.523Z,27.10
2019-04-14T15:30:19.875Z,28.60
2019-04-14T15:32:48.309Z,29.20
2019-04-14T15:35:16.823Z,30.30
2019-04-14T15:37:45.272Z,29.20
2019-04-14T15:40:14.117Z,27.20
2019-04-14T15:42:42.601Z,25.50
2019-04-14T15:45:13.865Z,23.90
2019-04-14T15:47:41.692Z,23.40
2019-04-14T15:50:10.710Z,23.80
2019-04-14T15:52:39.196Z,25.90
2019-04-14T15:55:07.776Z,27.10
2019-04-14T15:57:46.908Z,27.50
2019-04-14T16:00:22.794Z,28.50
2019-04-14T16:03:08.876Z,29.40
2019-04-14T16:05:44.472Z,30.50
2019-04-14T16:08:14.548Z,31.00
2019-04-14T16:10:53.296Z,29.70
2019-04-14T16:13:39.324Z,27.60
2019-04-14T16:16:09.388Z,25.50
2019-04-14T16:18:41.870Z,24.10
2019-04-14T16:21:10.307Z,23.20
2019-04-14T16:23:49.911Z,23.70
2019-04-14T16:26:13.228Z,24.60
2019-04-14T16:28:43.303Z,24.10
2019-04-14T16:31:24.109Z,22.80
2019-04-14T16:34:09.168Z,21.70
2019-04-14T16:36:37.604Z,20.90
2019-04-14T16:39:06.768Z,20.10
2019-04-14T16:41:35.196Z,19.50
2019-04-14T16:44:04.165Z,19.10
2019-04-14T16:46:32.592Z,18.90
2019-04-14T16:49:01.036Z,18.80
2019-04-14T16:51:31.104Z,18.60
2019-04-14T16:54:03.245Z,18.60
2019-04-14T16:56:41.701Z,19.40
2019-04-14T16:59:11.213Z,20.70
2019-04-14T17:01:41.266Z,21.70
2019-04-14T17:04:09.700Z,22.40
2019-04-14T17:06:38.126Z,22.50
2019-04-14T17:09:07.705Z,21.90
2019-04-14T17:11:36.157Z,21.60
2019-04-14T17:14:09.438Z,21.70
2019-04-14T17:16:55.928Z,21.80
2019-04-14T17:19:34.950Z,21.10
2019-04-14T17:22:10.658Z,21.20
2019-04-14T17:24:56.454Z,21.50
2019-04-14T17:27:32.065Z,21.50
2019-04-14T17:30:13.897Z,21.50
2019-04-14T17:32:46.744Z,20.70
2019-04-14T17:35:31.634Z,19.60
2019-04-14T17:38:01.721Z,18.70
2019-04-14T17:40:48.186Z,17.90
2019-04-14T17:43:29.954Z,17.30
2019-04-14T17:46:16.422Z,16.80
2019-04-14T17:49:02.923Z,16.30
2019-04-14T17:51:41.982Z,16.00
2019-04-14T17:54:29.616Z,15.60
2019-04-14T17:57:10.801Z,15.30
2019-04-14T17:59:55.902Z,14.90
2019-04-14T18:02:25.986Z,14.70
2019-04-14T18:04:58.482Z,14.50
2019-04-14T18:07:28.615Z,14.20
2019-04-14T18:09:58.684Z,14.00
2019-04-14T18:12:40.978Z,13.90
2019-04-14T18:15:13.971Z,13.70
2019-04-14T18:17:56.034Z,13.60
2019-04-14T18:20:26.087Z,13.30
2019-04-14T18:22:54.591Z,13.10
2019-04-14T18:25:23.019Z,12.90
2019-04-14T18:28:09.476Z,12.70
2019-04-14T18:30:45.569Z,12.60
2019-04-14T18:33:18.268Z,12.40
2019-04-14T18:36:00.523Z,12.30
2019-04-14T18:38:33.219Z,12.20
2019-04-14T18:41:03.387Z,12.20
2019-04-14T18:43:48.431Z,12.10
2019-04-14T18:46:18.508Z,12.10
2019-04-14T18:49:04.711Z,12.10
2019-04-14T18:51:34.791Z,12.10
2019-04-14T18:54:10.895Z,12.10
2019-04-14T18:56:43.905Z,12.10
2019-04-14T18:59:28.957Z,12.20
2019-04-14T19:01:57.667Z,12.30
2019-04-14T19:04:26.260Z,12.30
2019-04-14T19:06:54.687Z,12.30
2019-04-14T19:09:23.368Z,12.30
2019-04-14T19:11:59.427Z,12.40
2019-04-14T19:14:29.499Z,12.30
2019-04-14T19:17:02.286Z,12.30
2019-04-14T19:19:32.352Z,12.30
2019-04-14T19:22:00.800Z,12.30
2019-04-14T19:24:29.220Z,12.20
2019-04-14T19:26:57.651Z,12.20
2019-04-14T19:29:27.711Z,12.20
2019-04-14T19:31:56.497Z,12.20
2019-04-14T19:34:24.926Z,12.20
2019-04-14T19:36:53.490Z,12.20
2019-04-14T19:39:21.929Z,12.30
2019-04-14T19:41:51.682Z,12.30
2019-04-14T19:44:20.119Z,12.20
2019-04-14T19:46:48.574Z,12.20
2019-04-14T19:49:17.093Z,12.20
2019-04-14T19:51:45.572Z,12.20
2019-04-14T19:54:14.067Z,12.20
2019-04-14T19:56:42.778Z,12.20
2019-04-14T19:59:11.274Z,12.20
2019-04-14T20:01:39.846Z,12.10
2019-04-14T20:04:08.342Z,12.10
2019-04-14T20:06:36.819Z,12.10
2019-04-14T20:09:06.550Z,12.10
2019-04-14T20:11:36.403Z,12.00
2019-04-14T20:14:04.814Z,12.00
2019-04-14T20:16:40.671Z,12.00
2019-04-14T20:19:11.015Z,12.00
2019-04-14T20:21:57.320Z,12.00
2019-04-14T20:24:33.161Z,12.00
2019-04-14T20:27:03.281Z,11.90
2019-04-14T20:29:39.346Z,11.90
2019-04-14T20:32:12.393Z,11.80
2019-04-14T20:34:40.989Z,11.70
2019-04-14T20:37:09.630Z,11.70
2019-04-14T20:39:38.675Z,11.60
2019-04-14T20:42:08.157Z,11.50
2019-04-14T20:44:36.883Z,11.50
2019-04-14T20:47:07.234Z,11.50
2019-04-14T20:49:35.678Z,11.40
2019-04-14T20:52:04.270Z,11.40
2019-04-14T20:54:32.785Z,11.30
2019-04-14T20:57:01.230Z,11.20
2019-04-14T20:59:29.655Z,11.10
2019-04-14T21:01:59.816Z,11.10
2019-04-14T21:04:35.365Z,11.00
2019-04-14T21:10:18.759Z,11.10
2019-04-14T21:13:00.726Z,11.10
2019-04-14T21:18:24.398Z,11.00
2019-04-14T21:20:54.467Z,10.90
2019-04-14T21:23:36.786Z,10.90
2019-04-14T21:26:06.862Z,10.80
2019-04-14T21:28:49.220Z,10.80
2019-04-14T21:31:19.295Z,10.80
2019-04-14T21:33:49.335Z,10.80
2019-04-14T21:39:17.651Z,10.90
2019-04-14T21:41:52.631Z,11.00
2019-04-14T21:44:21.054Z,11.00
2019-04-14T21:46:49.479Z,11.00
2019-04-14T21:49:17.895Z,10.90
2019-04-14T21:52:06.239Z,10.90
2019-04-14T21:54:34.655Z,10.90
2019-04-14T21:57:10.540Z,10.80
2019-04-14T21:59:56.783Z,10.70
2019-04-14T22:03:02.789Z,10.60
2019-04-14T22:05:42.148Z,10.50
2019-04-14T22:08:12.239Z,10.50
2019-04-14T22:10:44.909Z,10.50
2019-04-14T22:13:13.590Z,10.50
2019-04-14T22:15:42.031Z,10.40
2019-04-14T22:18:10.454Z,10.40
2019-04-14T22:20:38.884Z,10.30
2019-04-14T22:23:13.432Z,10.30
2019-04-14T22:25:41.856Z,10.30
2019-04-14T22:28:10.275Z,10.30
2019-04-14T22:30:38.818Z,10.30
2019-04-14T22:33:07.457Z,10.30
2019-04-14T22:35:35.887Z,10.30
2019-04-14T22:38:04.400Z,10.30
2019-04-14T22:40:32.833Z,10.30
2019-04-14T22:43:01.439Z,10.20
2019-04-14T22:45:29.879Z,10.30
2019-04-14T22:47:58.313Z,10.30
2019-04-14T22:50:26.761Z,10.30
2019-04-14T22:52:55.181Z,10.20
2019-04-14T22:55:23.604Z,10.20
2019-04-14T22:57:52.088Z,10.20
2019-04-14T23:00:33.108Z,10.20
2019-04-14T23:03:12.169Z,10.30
2019-04-14T23:05:51.188Z,10.30
2019-04-14T23:08:33.468Z,10.20
2019-04-14T23:11:15.504Z,10.20
2019-04-14T23:13:51.459Z,10.10
2019-04-14T23:16:39.659Z,10.10
2019-04-14T23:19:15.177Z,10.20
2019-04-14T23:21:45.256Z,10.20
2019-04-14T23:24:15.321Z,10.10
2019-04-14T23:26:52.391Z,10.10
2019-04-14T23:29:13.901Z,10.10
2019-04-14T23:31:42.325Z,10.10
2019-04-14T23:34:10.769Z,10.10
2019-04-14T23:36:39.215Z,10.10
2019-04-14T23:39:09.638Z,10.10
2019-04-14T23:41:38.057Z,10.10
2019-04-14T23:44:06.558Z,10.10
2019-04-14T23:46:34.982Z,10.10
2019-04-14T23:49:03.869Z,10.00
2019-04-14T23:51:32.289Z,10.00
2019-04-14T23:54:00.709Z,10.00
2019-04-14T23:56:29.158Z,9.90
2019-04-14T23:58:57.561Z,9.90
